LFRG/DOL METAR and TAF weather

Enter ICAO airport designator
Station Type Date Time Source
LFRG METAR 2019/12/08 11:00 UTC NOAA

LFRG 081100Z AUTO 25015KT 9999 BKN022 OVC250 11/08 Q1009 TEMPO SHRA BECMG 25015G25KT


Station Type Date Time Source
LFRG Decoded METAR 2019/12/08 11:00 UTC NOAA

Station name not available
Dec 08, 2019 - 06:00 AM EST / 2019.12.08 1100 UTC
Wind: from the WSW (250 degrees) at 17 MPH (15 KT):0
Visibility: greater than 7 mile(s):0
Sky conditions: overcast
Temperature: 51 F (11 C)
Dew Point: 46 F (8 C)
Relative Humidity: 81%
Pressure (altimeter): 29.80 in. Hg (1009 hPa)
ob: LFRG 081100Z AUTO 25015KT 9999 BKN022 OVC250 11/08 Q1009 TEMPO SHRA BECMG 25015G25KT
cycle: 11

Station Type Date Time Source
LFRG TAF 2014/12/22 18:42 UTC NOAA

TAF
AMD TAF
AMD LFRG 221837Z 2218/2221 25015KT 9999 OVC015
TEMPO 2218/2221 BKN007 PROB30
TEMPO 2218/2221 25015G25KT 4000 DZ BKN003

Example: see airport list